IGO3461 VEGT-VEIM
Flight info
| Callsign | IGO3461 |
|---|---|
| Flight time | 0h 44m |
| Altitude | 17000 |
| Route | VENUM1B VENUM W53 KKU W55 IIM |
| Aircraft | A21N/M-SDE3FGHIRWY/LB1 |
Departure
| Time | 2026-05-07 07:39 |
|---|---|
| Airport | Lokpriya Gopinath Bordoloi International Airport (VEGT) |
Arrival
| Time | 2026-05-07 08:23 |
|---|---|
| Airport | Bir Tikendrajit International Airport (VEIM) |
| Time | Latitude | Longitude | Altitude | Speed | Heading |
|---|---|---|---|---|---|
| 2026-05-07 07:19 | 26.10567 | 91.58729 | 190 ft | 0 kts | 112° |
| 2026-05-07 07:29 | 26.10567 | 91.58728 | 190 ft | 1 kts | 111° |
| 2026-05-07 07:29 | 26.10573 | 91.58717 | 190 ft | 2 kts | 118° |
| 2026-05-07 07:29 | 26.10579 | 91.58701 | 189 ft | 2 kts | 110° |
| 2026-05-07 07:29 | 26.10583 | 91.58688 | 189 ft | 1 kts | 112° |
| 2026-05-07 07:30 | 26.10587 | 91.58681 | 189 ft | 1 kts | 139° |
| 2026-05-07 07:30 | 26.10593 | 91.58676 | 189 ft | 1 kts | 168° |
| 2026-05-07 07:30 | 26.10605 | 91.58678 | 189 ft | 2 kts | 219° |
| 2026-05-07 07:30 | 26.10614 | 91.58691 | 189 ft | 2 kts | 234° |
| 2026-05-07 07:31 | 26.10625 | 91.58702 | 189 ft | 2 kts | 197° |
| 2026-05-07 07:31 | 26.10639 | 91.58706 | 189 ft | 2 kts | 204° |
| 2026-05-07 07:31 | 26.10652 | 91.58714 | 189 ft | 2 kts | 204° |
| 2026-05-07 07:31 | 26.10660 | 91.58717 | 189 ft | 0 kts | 202° |
| 2026-05-07 07:32 | 26.10642 | 91.58708 | 189 ft | 3 kts | 204° |
| 2026-05-07 07:32 | 26.10624 | 91.58700 | 189 ft | 0 kts | 204° |
| 2026-05-07 07:32 | 26.10623 | 91.58699 | 189 ft | 0 kts | 204° |
| 2026-05-07 07:33 | 26.10620 | 91.58697 | 189 ft | 1 kts | 204° |
| 2026-05-07 07:34 | 26.10616 | 91.58696 | 189 ft | 1 kts | 204° |
| 2026-05-07 07:34 | 26.10568 | 91.58671 | 189 ft | 6 kts | 206° |
| 2026-05-07 07:34 | 26.10547 | 91.58630 | 188 ft | 7 kts | 275° |
| 2026-05-07 07:34 | 26.10563 | 91.58578 | 188 ft | 7 kts | 293° |
| 2026-05-07 07:35 | 26.10585 | 91.58524 | 188 ft | 7 kts | 292° |
| 2026-05-07 07:35 | 26.10564 | 91.58479 | 188 ft | 7 kts | 212° |
| 2026-05-07 07:35 | 26.10517 | 91.58456 | 189 ft | 7 kts | 203° |
| 2026-05-07 07:35 | 26.10458 | 91.58428 | 189 ft | 10 kts | 205° |
| 2026-05-07 07:36 | 26.10382 | 91.58394 | 189 ft | 12 kts | 204° |
| 2026-05-07 07:36 | 26.10292 | 91.58351 | 188 ft | 15 kts | 202° |
| 2026-05-07 07:36 | 26.10189 | 91.58304 | 188 ft | 17 kts | 203° |
| 2026-05-07 07:36 | 26.10073 | 91.58249 | 188 ft | 18 kts | 203° |
| 2026-05-07 07:37 | 26.09947 | 91.58194 | 187 ft | 20 kts | 202° |
| 2026-05-07 07:37 | 26.09814 | 91.58131 | 188 ft | 20 kts | 203° |
| 2026-05-07 07:37 | 26.09686 | 91.58070 | 189 ft | 19 kts | 205° |
| 2026-05-07 07:37 | 26.09589 | 91.57980 | 189 ft | 14 kts | 227° |
| 2026-05-07 07:38 | 26.09511 | 91.57973 | 188 ft | 13 kts | 96° |
| 2026-05-07 07:38 | 26.09601 | 91.58034 | 189 ft | 30 kts | 22° |
| 2026-05-07 07:38 | 26.10032 | 91.58231 | 188 ft | 100 kts | 22° |
| 2026-05-07 07:38 | 26.10872 | 91.58617 | 186 ft | 158 kts | 22° |
| 2026-05-07 07:39 | 26.11993 | 91.59147 | 495 ft | 177 kts | 22° |
| 2026-05-07 07:39 | 26.13128 | 91.59705 | 1072 ft | 180 kts | 22° |
| 2026-05-07 07:39 | 26.14270 | 91.60251 | 1696 ft | 181 kts | 22° |
| 2026-05-07 07:39 | 26.15442 | 91.60808 | 2185 ft | 188 kts | 22° |
| 2026-05-07 07:40 | 26.16679 | 91.61397 | 2553 ft | 200 kts | 22° |
| 2026-05-07 07:40 | 26.18008 | 91.62031 | 2870 ft | 216 kts | 22° |
| 2026-05-07 07:40 | 26.19439 | 91.62766 | 3125 ft | 238 kts | 32° |
| 2026-05-07 07:40 | 26.20538 | 91.64216 | 3473 ft | 256 kts | 70° |
| 2026-05-07 07:41 | 26.20643 | 91.66146 | 4149 ft | 258 kts | 103° |
| 2026-05-07 07:41 | 26.20088 | 91.68061 | 4806 ft | 264 kts | 111° |
| 2026-05-07 07:41 | 26.19406 | 91.70020 | 5285 ft | 279 kts | 111° |
| 2026-05-07 07:41 | 26.18746 | 91.72085 | 5988 ft | 284 kts | 109° |
| 2026-05-07 07:42 | 26.18151 | 91.74152 | 6768 ft | 286 kts | 108° |
| 2026-05-07 07:42 | 26.17569 | 91.76314 | 7548 ft | 290 kts | 108° |
| 2026-05-07 07:42 | 26.17008 | 91.78462 | 8326 ft | 292 kts | 108° |
| 2026-05-07 07:42 | 26.16449 | 91.80631 | 9086 ft | 295 kts | 108° |
| 2026-05-07 07:43 | 26.15677 | 91.82720 | 9799 ft | 295 kts | 128° |
| 2026-05-07 07:43 | 26.14254 | 91.84330 | 10501 ft | 295 kts | 143° |
| 2026-05-07 07:43 | 26.12597 | 91.85783 | 10909 ft | 310 kts | 145° |
| 2026-05-07 07:43 | 26.10847 | 91.87289 | 11233 ft | 328 kts | 144° |
| 2026-05-07 07:44 | 26.09013 | 91.88914 | 11531 ft | 345 kts | 144° |
| 2026-05-07 07:44 | 26.07090 | 91.90661 | 11829 ft | 362 kts | 143° |
| 2026-05-07 07:44 | 26.05109 | 91.92490 | 12121 ft | 378 kts | 143° |
| 2026-05-07 07:44 | 26.03059 | 91.94402 | 12592 ft | 387 kts | 143° |
| 2026-05-07 07:45 | 26.00979 | 91.96356 | 13211 ft | 391 kts | 143° |
| 2026-05-07 07:45 | 25.98886 | 91.98325 | 13841 ft | 394 kts | 143° |
| 2026-05-07 07:45 | 25.96787 | 92.00303 | 14435 ft | 398 kts | 143° |
| 2026-05-07 07:45 | 25.94655 | 92.02310 | 14985 ft | 403 kts | 143° |
| 2026-05-07 07:46 | 25.92509 | 92.04331 | 15520 ft | 407 kts | 143° |
| 2026-05-07 07:46 | 25.90334 | 92.06379 | 16077 ft | 410 kts | 143° |
| 2026-05-07 07:46 | 25.88151 | 92.08424 | 16606 ft | 414 kts | 143° |
| 2026-05-07 07:46 | 25.85930 | 92.10502 | 16898 ft | 416 kts | 144° |
| 2026-05-07 07:47 | 25.83713 | 92.12575 | 16959 ft | 416 kts | 143° |
| 2026-05-07 07:47 | 25.81520 | 92.14631 | 16977 ft | 416 kts | 143° |
| 2026-05-07 07:47 | 25.79292 | 92.16720 | 16979 ft | 416 kts | 143° |
| 2026-05-07 07:47 | 25.77057 | 92.18816 | 16983 ft | 417 kts | 143° |
| 2026-05-07 07:48 | 25.74834 | 92.20901 | 16982 ft | 418 kts | 143° |
| 2026-05-07 07:48 | 25.72630 | 92.22968 | 16987 ft | 418 kts | 144° |
| 2026-05-07 07:48 | 25.70415 | 92.25043 | 16997 ft | 418 kts | 143° |
| 2026-05-07 07:48 | 25.68176 | 92.27139 | 16999 ft | 418 kts | 143° |
| 2026-05-07 07:49 | 25.65943 | 92.29231 | 17003 ft | 418 kts | 144° |
| 2026-05-07 07:49 | 25.63730 | 92.31305 | 17002 ft | 418 kts | 143° |
| 2026-05-07 07:49 | 25.61513 | 92.33379 | 17002 ft | 418 kts | 143° |
| 2026-05-07 07:49 | 25.59284 | 92.35463 | 16999 ft | 418 kts | 144° |
| 2026-05-07 07:50 | 25.57048 | 92.37554 | 17001 ft | 418 kts | 144° |
| 2026-05-07 07:50 | 25.54839 | 92.39619 | 17003 ft | 418 kts | 144° |
| 2026-05-07 07:50 | 25.52599 | 92.41710 | 17002 ft | 419 kts | 144° |
| 2026-05-07 07:50 | 25.50386 | 92.43775 | 17005 ft | 419 kts | 144° |
| 2026-05-07 07:51 | 25.48139 | 92.45871 | 17002 ft | 418 kts | 144° |
| 2026-05-07 07:51 | 25.45899 | 92.47959 | 17000 ft | 419 kts | 144° |
| 2026-05-07 07:51 | 25.43667 | 92.50040 | 17003 ft | 419 kts | 144° |
| 2026-05-07 07:51 | 25.41448 | 92.52106 | 17002 ft | 420 kts | 143° |
| 2026-05-07 07:52 | 25.39208 | 92.54192 | 17001 ft | 419 kts | 144° |
| 2026-05-07 07:52 | 25.36990 | 92.56255 | 16999 ft | 420 kts | 143° |
| 2026-05-07 07:52 | 25.34726 | 92.58363 | 17001 ft | 420 kts | 143° |
| 2026-05-07 07:52 | 25.32497 | 92.60437 | 17005 ft | 420 kts | 143° |
| 2026-05-07 07:53 | 25.30272 | 92.62505 | 17008 ft | 420 kts | 144° |
| 2026-05-07 07:53 | 25.28163 | 92.64724 | 16991 ft | 426 kts | 132° |
| 2026-05-07 07:53 | 25.26652 | 92.67568 | 17017 ft | 430 kts | 118° |
| 2026-05-07 07:53 | 25.25450 | 92.70599 | 17023 ft | 429 kts | 116° |
| 2026-05-07 07:54 | 25.24292 | 92.73637 | 17022 ft | 429 kts | 116° |
| 2026-05-07 07:54 | 25.23096 | 92.76681 | 17017 ft | 428 kts | 117° |
| 2026-05-07 07:54 | 25.21881 | 92.79676 | 17000 ft | 427 kts | 118° |
| 2026-05-07 07:54 | 25.20642 | 92.82657 | 16989 ft | 427 kts | 118° |
| 2026-05-07 07:55 | 25.19384 | 92.85636 | 16973 ft | 426 kts | 118° |
| 2026-05-07 07:55 | 25.18127 | 92.88587 | 16956 ft | 427 kts | 118° |
| 2026-05-07 07:55 | 25.16855 | 92.91560 | 16951 ft | 427 kts | 118° |
| 2026-05-07 07:55 | 25.15587 | 92.94518 | 16944 ft | 427 kts | 118° |
| 2026-05-07 07:56 | 25.14312 | 92.97487 | 16922 ft | 427 kts | 118° |
| 2026-05-07 07:56 | 25.13045 | 93.00433 | 16922 ft | 427 kts | 118° |
| 2026-05-07 07:56 | 25.11778 | 93.03379 | 16934 ft | 427 kts | 118° |
| 2026-05-07 07:56 | 25.10508 | 93.06331 | 16913 ft | 427 kts | 118° |
| 2026-05-07 07:57 | 25.09239 | 93.09275 | 16903 ft | 427 kts | 118° |
| 2026-05-07 07:57 | 25.07956 | 93.12270 | 16918 ft | 427 kts | 118° |
| 2026-05-07 07:57 | 25.06707 | 93.15203 | 16893 ft | 427 kts | 118° |
| 2026-05-07 07:57 | 25.05439 | 93.18177 | 16884 ft | 428 kts | 118° |
| 2026-05-07 07:58 | 25.04169 | 93.21139 | 16805 ft | 428 kts | 118° |
| 2026-05-07 07:58 | 25.02900 | 93.24094 | 16551 ft | 425 kts | 118° |
| 2026-05-07 07:58 | 25.01632 | 93.27035 | 16322 ft | 423 kts | 118° |
| 2026-05-07 07:58 | 25.00362 | 93.29979 | 16091 ft | 421 kts | 118° |
| 2026-05-07 07:59 | 24.99112 | 93.32872 | 15863 ft | 419 kts | 118° |
| 2026-05-07 07:59 | 24.97873 | 93.35735 | 15644 ft | 416 kts | 118° |
| 2026-05-07 07:59 | 24.96617 | 93.38636 | 15427 ft | 415 kts | 118° |
| 2026-05-07 07:59 | 24.95383 | 93.41484 | 15199 ft | 412 kts | 118° |
| 2026-05-07 08:00 | 24.94143 | 93.44346 | 14964 ft | 411 kts | 118° |
| 2026-05-07 08:00 | 24.92923 | 93.47162 | 14751 ft | 408 kts | 118° |
| 2026-05-07 08:00 | 24.91706 | 93.49969 | 14525 ft | 406 kts | 118° |
| 2026-05-07 08:00 | 24.90481 | 93.52792 | 14284 ft | 404 kts | 118° |
| 2026-05-07 08:01 | 24.89276 | 93.55556 | 14052 ft | 401 kts | 118° |
| 2026-05-07 08:01 | 24.88068 | 93.58306 | 13830 ft | 400 kts | 118° |
| 2026-05-07 08:01 | 24.86849 | 93.61081 | 13597 ft | 398 kts | 118° |
| 2026-05-07 08:01 | 24.85659 | 93.63799 | 13376 ft | 396 kts | 118° |
| 2026-05-07 08:02 | 24.84468 | 93.66531 | 13146 ft | 394 kts | 118° |
| 2026-05-07 08:02 | 24.83281 | 93.69269 | 12917 ft | 392 kts | 118° |
| 2026-05-07 08:02 | 24.82110 | 93.71969 | 12694 ft | 391 kts | 118° |
| 2026-05-07 08:02 | 24.80954 | 93.74628 | 12437 ft | 386 kts | 117° |
| 2026-05-07 08:03 | 24.79811 | 93.77254 | 12141 ft | 376 kts | 117° |
| 2026-05-07 08:03 | 24.78696 | 93.79816 | 12027 ft | 363 kts | 117° |
| 2026-05-07 08:03 | 24.77608 | 93.82313 | 11720 ft | 356 kts | 117° |
| 2026-05-07 08:03 | 24.76543 | 93.84751 | 11407 ft | 350 kts | 117° |
| 2026-05-07 08:04 | 24.75506 | 93.87118 | 11105 ft | 343 kts | 117° |
| 2026-05-07 08:04 | 24.74490 | 93.89457 | 10792 ft | 338 kts | 114° |
| 2026-05-07 08:04 | 24.73987 | 93.91936 | 10475 ft | 333 kts | 88° |
| 2026-05-07 08:04 | 24.74579 | 93.94354 | 10181 ft | 325 kts | 59° |
| 2026-05-07 08:05 | 24.76042 | 93.96195 | 10008 ft | 311 kts | 40° |
| 2026-05-07 08:05 | 24.77654 | 93.97678 | 9976 ft | 296 kts | 38° |
| 2026-05-07 08:05 | 24.79281 | 93.98968 | 9939 ft | 279 kts | 24° |
| 2026-05-07 08:05 | 24.81121 | 93.99543 | 9948 ft | 272 kts | 1° |
| 2026-05-07 08:06 | 24.82999 | 93.99507 | 9963 ft | 276 kts | 348° |
| 2026-05-07 08:06 | 24.84759 | 93.98629 | 9985 ft | 283 kts | 318° |
| 2026-05-07 08:06 | 24.85974 | 93.96907 | 9996 ft | 283 kts | 292° |
| 2026-05-07 08:06 | 24.86353 | 93.94819 | 10003 ft | 283 kts | 266° |
| 2026-05-07 08:07 | 24.85834 | 93.92733 | 10002 ft | 283 kts | 241° |
| 2026-05-07 08:07 | 24.84529 | 93.91123 | 9990 ft | 286 kts | 216° |
| 2026-05-07 08:07 | 24.82700 | 93.90278 | 9997 ft | 289 kts | 193° |
| 2026-05-07 08:07 | 24.80694 | 93.89992 | 9991 ft | 292 kts | 183° |
| 2026-05-07 08:08 | 24.78655 | 93.90091 | 9990 ft | 293 kts | 177° |
| 2026-05-07 08:08 | 24.76609 | 93.90317 | 9988 ft | 294 kts | 175° |
| 2026-05-07 08:08 | 24.74565 | 93.90630 | 9979 ft | 295 kts | 166° |
| 2026-05-07 08:08 | 24.72720 | 93.91650 | 9985 ft | 298 kts | 144° |
| 2026-05-07 08:09 | 24.71040 | 93.92988 | 9969 ft | 297 kts | 153° |
| 2026-05-07 08:09 | 24.69137 | 93.93610 | 9954 ft | 276 kts | 180° |
| 2026-05-07 08:09 | 24.67312 | 93.93250 | 9966 ft | 265 kts | 207° |
| 2026-05-07 08:09 | 24.65892 | 93.91972 | 9875 ft | 272 kts | 235° |
| 2026-05-07 08:10 | 24.65116 | 93.90034 | 9752 ft | 279 kts | 262° |
| 2026-05-07 08:10 | 24.65300 | 93.87940 | 9642 ft | 281 kts | 291° |
| 2026-05-07 08:10 | 24.66418 | 93.86193 | 9529 ft | 284 kts | 320° |
| 2026-05-07 08:10 | 24.68203 | 93.85268 | 9424 ft | 288 kts | 349° |
| 2026-05-07 08:11 | 24.70201 | 93.85403 | 9307 ft | 292 kts | 12° |
| 2026-05-07 08:11 | 24.72196 | 93.85854 | 9220 ft | 285 kts | 5° |
| 2026-05-07 08:11 | 24.74130 | 93.86053 | 9065 ft | 275 kts | 2° |
| 2026-05-07 08:11 | 24.75996 | 93.86188 | 9002 ft | 262 kts | 2° |
| 2026-05-07 08:12 | 24.77755 | 93.86308 | 8988 ft | 248 kts | 2° |
| 2026-05-07 08:12 | 24.79502 | 93.86426 | 8952 ft | 248 kts | 1° |
| 2026-05-07 08:12 | 24.81225 | 93.86543 | 8863 ft | 247 kts | 1° |
| 2026-05-07 08:12 | 24.82936 | 93.86713 | 8831 ft | 255 kts | 10° |
| 2026-05-07 08:13 | 24.84685 | 93.87254 | 8814 ft | 257 kts | 17° |
| 2026-05-07 08:13 | 24.86359 | 93.87898 | 8800 ft | 249 kts | 18° |
| 2026-05-07 08:13 | 24.88000 | 93.88522 | 8795 ft | 249 kts | 17° |
| 2026-05-07 08:13 | 24.89654 | 93.89123 | 8811 ft | 249 kts | 16° |
| 2026-05-07 08:14 | 24.91306 | 93.89703 | 8758 ft | 242 kts | 15° |
| 2026-05-07 08:14 | 24.92861 | 93.90240 | 8678 ft | 226 kts | 15° |
| 2026-05-07 08:14 | 24.94316 | 93.90740 | 8536 ft | 211 kts | 15° |
| 2026-05-07 08:14 | 24.95675 | 93.91203 | 8392 ft | 197 kts | 15° |
| 2026-05-07 08:15 | 24.96955 | 93.91640 | 8244 ft | 184 kts | 15° |
| 2026-05-07 08:15 | 24.98160 | 93.92095 | 8178 ft | 185 kts | 23° |
| 2026-05-07 08:15 | 24.99219 | 93.92911 | 8057 ft | 186 kts | 43° |
| 2026-05-07 08:15 | 24.99980 | 93.94063 | 7932 ft | 187 kts | 63° |
| 2026-05-07 08:16 | 25.00375 | 93.95424 | 7771 ft | 187 kts | 81° |
| 2026-05-07 08:16 | 25.00365 | 93.96852 | 7573 ft | 187 kts | 100° |
| 2026-05-07 08:16 | 25.00022 | 93.98230 | 7377 ft | 187 kts | 109° |
| 2026-05-07 08:16 | 24.99573 | 93.99564 | 7293 ft | 185 kts | 112° |
| 2026-05-07 08:17 | 24.99057 | 94.00885 | 7252 ft | 186 kts | 118° |
| 2026-05-07 08:17 | 24.98301 | 94.02016 | 7167 ft | 183 kts | 140° |
| 2026-05-07 08:17 | 24.97221 | 94.02706 | 7091 ft | 180 kts | 165° |
| 2026-05-07 08:17 | 24.95979 | 94.02833 | 6961 ft | 176 kts | 190° |
| 2026-05-07 08:18 | 24.94845 | 94.02407 | 6837 ft | 173 kts | 210° |
| 2026-05-07 08:18 | 24.93786 | 94.01766 | 6739 ft | 173 kts | 206° |
| 2026-05-07 08:18 | 24.92637 | 94.01316 | 6649 ft | 174 kts | 199° |
| 2026-05-07 08:18 | 24.91466 | 94.00953 | 6560 ft | 174 kts | 198° |
| 2026-05-07 08:19 | 24.90292 | 94.00594 | 6379 ft | 170 kts | 203° |
| 2026-05-07 08:19 | 24.89306 | 93.99918 | 6180 ft | 167 kts | 220° |
| 2026-05-07 08:19 | 24.88410 | 93.99101 | 5975 ft | 167 kts | 221° |
| 2026-05-07 08:19 | 24.87501 | 93.98308 | 5755 ft | 167 kts | 220° |
| 2026-05-07 08:20 | 24.86570 | 93.97562 | 5397 ft | 164 kts | 218° |
| 2026-05-07 08:20 | 24.85646 | 93.96864 | 5012 ft | 163 kts | 217° |
| 2026-05-07 08:20 | 24.84697 | 93.96165 | 4707 ft | 163 kts | 217° |
| 2026-05-07 08:20 | 24.83748 | 93.95468 | 4460 ft | 164 kts | 216° |
| 2026-05-07 08:21 | 24.82800 | 93.94780 | 4124 ft | 163 kts | 216° |
| 2026-05-07 08:21 | 24.81849 | 93.94128 | 3796 ft | 162 kts | 215° |
| 2026-05-07 08:21 | 24.80909 | 93.93459 | 3506 ft | 160 kts | 218° |
| 2026-05-07 08:21 | 24.79999 | 93.92748 | 3278 ft | 160 kts | 219° |
| 2026-05-07 08:22 | 24.79089 | 93.92036 | 3066 ft | 160 kts | 218° |
| 2026-05-07 08:22 | 24.78164 | 93.91346 | 2855 ft | 159 kts | 217° |
| 2026-05-07 08:22 | 24.77260 | 93.90673 | 2666 ft | 152 kts | 217° |
| 2026-05-07 08:22 | 24.76424 | 93.90045 | 2588 ft | 135 kts | 215° |
| 2026-05-07 08:23 | 24.75783 | 93.89578 | 2585 ft | 85 kts | 214° |
| 2026-05-07 08:23 | 24.75435 | 93.89322 | 2586 ft | 40 kts | 214° |
| 2026-05-07 08:23 | 24.75218 | 93.89161 | 2584 ft | 31 kts | 215° |
| 2026-05-07 08:23 | 24.75047 | 93.89030 | 2580 ft | 21 kts | 215° |
| 2026-05-07 08:24 | 24.74993 | 93.88944 | 2580 ft | 4 kts | 223° |
| 2026-05-07 08:24 | 24.74985 | 93.88963 | 2580 ft | 4 kts | 80° |
| 2026-05-07 08:24 | 24.75008 | 93.89004 | 2579 ft | 7 kts | 46° |
| 2026-05-07 08:24 | 24.75062 | 93.89047 | 2580 ft | 10 kts | 34° |
| 2026-05-07 08:25 | 24.75131 | 93.89098 | 2581 ft | 13 kts | 34° |
| 2026-05-07 08:25 | 24.75212 | 93.89158 | 2583 ft | 14 kts | 33° |
| 2026-05-07 08:25 | 24.75305 | 93.89225 | 2585 ft | 16 kts | 33° |
| 2026-05-07 08:25 | 24.75411 | 93.89304 | 2586 ft | 20 kts | 35° |
| 2026-05-07 08:26 | 24.75680 | 93.89503 | 2585 ft | 25 kts | 34° |
| 2026-05-07 08:26 | 24.75834 | 93.89619 | 2584 ft | 27 kts | 34° |
| 2026-05-07 08:26 | 24.75999 | 93.89738 | 2585 ft | 28 kts | 34° |
| 2026-05-07 08:27 | 24.76105 | 93.89816 | 2585 ft | 7 kts | 27° |
| 2026-05-07 08:27 | 24.76156 | 93.89793 | 2586 ft | 8 kts | 309° |
| 2026-05-07 08:27 | 24.76194 | 93.89748 | 2587 ft | 7 kts | 332° |
| 2026-05-07 08:27 | 24.76235 | 93.89751 | 2589 ft | 5 kts | 26° |
| 2026-05-07 08:28 | 24.76262 | 93.89771 | 2589 ft | 4 kts | 35° |
| 2026-05-07 08:28 | 24.76286 | 93.89789 | 2589 ft | 3 kts | 34° |
| 2026-05-07 08:28 | 24.76308 | 93.89806 | 2590 ft | 4 kts | 34° |
| 2026-05-07 08:28 | 24.76330 | 93.89822 | 2590 ft | 3 kts | 35° |
| 2026-05-07 08:29 | 24.76335 | 93.89826 | 2590 ft | 0 kts | 35° |